sensor_id;sensor_type;location;lat;lon;timestamp;P1;durP1;ratioP1;P2;durP2;ratioP2
64615;SDS011;51027;42.162;24.754;2023-06-19T03:31:03;16.50;;;6.88;;
64615;SDS011;51027;42.162;24.754;2023-06-19T03:33:28;17.58;;;6.93;;
64615;SDS011;51027;42.162;24.754;2023-06-19T03:35:54;17.25;;;7.22;;
64615;SDS011;51027;42.162;24.754;2023-06-19T03:38:20;16.60;;;6.60;;
64615;SDS011;51027;42.162;24.754;2023-06-19T03:40:45;17.08;;;7.63;;
64615;SDS011;51027;42.162;24.754;2023-06-19T03:43:11;15.10;;;6.72;;
64615;SDS011;51027;42.162;24.754;2023-06-19T03:45:36;16.77;;;7.05;;
64615;SDS011;51027;42.162;24.754;2023-06-19T03:48:02;17.42;;;7.32;;
64615;SDS011;51027;42.162;24.754;2023-06-19T03:50:27;16.95;;;7.45;;
64615;SDS011;51027;42.162;24.754;2023-06-19T03:52:53;16.77;;;7.30;;
64615;SDS011;51027;42.162;24.754;2023-06-19T03:55:18;14.95;;;6.05;;
64615;SDS011;51027;42.162;24.754;2023-06-19T03:57:44;16.02;;;6.95;;
64615;SDS011;51027;42.162;24.754;2023-06-19T04:00:09;20.13;;;8.10;;
64615;SDS011;51027;42.162;24.754;2023-06-19T04:02:38;15.50;;;6.77;;
64615;SDS011;51027;42.162;24.754;2023-06-19T04:05:04;16.25;;;7.30;;
64615;SDS011;51027;42.162;24.754;2023-06-19T04:07:30;16.25;;;7.57;;
64615;SDS011;51027;42.162;24.754;2023-06-19T04:09:56;15.18;;;6.85;;
64615;SDS011;51027;42.162;24.754;2023-06-19T04:12:22;16.80;;;6.85;;
64615;SDS011;51027;42.162;24.754;2023-06-19T04:14:47;16.90;;;7.05;;
64615;SDS011;51027;42.162;24.754;2023-06-19T04:17:13;17.52;;;7.47;;
64615;SDS011;51027;42.162;24.754;2023-06-19T04:19:39;16.63;;;6.97;;
64615;SDS011;51027;42.162;24.754;2023-06-19T04:22:04;14.27;;;6.75;;
64615;SDS011;51027;42.162;24.754;2023-06-19T04:24:30;16.58;;;6.82;;
64615;SDS011;51027;42.162;24.754;2023-06-19T04:26:55;16.55;;;6.82;;
64615;SDS011;51027;42.162;24.754;2023-06-19T04:29:21;17.00;;;7.28;;
64615;SDS011;51027;42.162;24.754;2023-06-19T04:31:46;17.20;;;7.10;;
64615;SDS011;51027;42.162;24.754;2023-06-19T04:34:12;16.67;;;6.43;;
64615;SDS011;51027;42.162;24.754;2023-06-19T04:36:40;16.13;;;6.88;;
64615;SDS011;51027;42.162;24.754;2023-06-19T04:39:06;16.83;;;7.13;;
64615;SDS011;51027;42.162;24.754;2023-06-19T04:41:31;15.80;;;5.93;;
64615;SDS011;51027;42.162;24.754;2023-06-19T04:43:57;16.73;;;6.95;;
64615;SDS011;51027;42.162;24.754;2023-06-19T04:46:22;15.73;;;6.53;;
64615;SDS011;51027;42.162;24.754;2023-06-19T04:48:48;16.35;;;6.53;;
64615;SDS011;51027;42.162;24.754;2023-06-19T04:51:16;15.85;;;7.38;;
64615;SDS011;51027;42.162;24.754;2023-06-19T04:56:11;14.93;;;6.15;;
64615;SDS011;51027;42.162;24.754;2023-06-19T04:58:36;16.40;;;7.00;;
64615;SDS011;51027;42.162;24.754;2023-06-19T05:01:09;16.15;;;7.53;;
64615;SDS011;51027;42.162;24.754;2023-06-19T05:03:35;18.02;;;6.80;;
64615;SDS011;51027;42.162;24.754;2023-06-19T05:06:00;15.07;;;6.43;;
64615;SDS011;51027;42.162;24.754;2023-06-19T05:08:26;15.68;;;6.55;;
64615;SDS011;51027;42.162;24.754;2023-06-19T05:10:51;16.75;;;6.40;;
64615;SDS011;51027;42.162;24.754;2023-06-19T05:13:18;15.75;;;7.13;;
64615;SDS011;51027;42.162;24.754;2023-06-19T05:15:44;17.50;;;6.47;;
64615;SDS011;51027;42.162;24.754;2023-06-19T05:18:09;14.00;;;6.22;;
64615;SDS011;51027;42.162;24.754;2023-06-19T05:20:35;16.10;;;6.30;;
64615;SDS011;51027;42.162;24.754;2023-06-19T05:23:00;17.92;;;7.20;;
64615;SDS011;51027;42.162;24.754;2023-06-19T05:25:25;13.88;;;6.20;;
64615;SDS011;51027;42.162;24.754;2023-06-19T05:27:52;17.00;;;6.63;;
64615;SDS011;51027;42.162;24.754;2023-06-19T05:30:18;16.45;;;6.82;;
64615;SDS011;51027;42.162;24.754;2023-06-19T05:32:43;16.90;;;7.00;;
64615;SDS011;51027;42.162;24.754;2023-06-19T05:35:08;14.02;;;6.07;;
64615;SDS011;51027;42.162;24.754;2023-06-19T05:37:34;16.85;;;6.45;;
64615;SDS011;51027;42.162;24.754;2023-06-19T05:39:59;14.48;;;6.03;;
64615;SDS011;51027;42.162;24.754;2023-06-19T05:42:25;14.80;;;6.43;;
64615;SDS011;51027;42.162;24.754;2023-06-19T05:44:50;15.25;;;6.32;;
64615;SDS011;51027;42.162;24.754;2023-06-19T05:47:15;16.35;;;6.20;;
64615;SDS011;51027;42.162;24.754;2023-06-19T05:49:42;15.18;;;6.07;;
64615;SDS011;51027;42.162;24.754;2023-06-19T05:52:08;15.25;;;6.35;;
64615;SDS011;51027;42.162;24.754;2023-06-19T05:54:34;14.82;;;5.90;;
64615;SDS011;51027;42.162;24.754;2023-06-19T05:56:59;14.48;;;6.28;;
64615;SDS011;51027;42.162;24.754;2023-06-19T05:59:25;18.90;;;6.30;;
64615;SDS011;51027;42.162;24.754;2023-06-19T06:01:50;14.05;;;5.38;;
64615;SDS011;51027;42.162;24.754;2023-06-19T06:04:15;15.68;;;6.00;;
64615;SDS011;51027;42.162;24.754;2023-06-19T06:06:42;15.23;;;6.07;;
64615;SDS011;51027;42.162;24.754;2023-06-19T06:09:08;14.70;;;6.47;;
64615;SDS011;51027;42.162;24.754;2023-06-19T06:11:37;17.45;;;7.57;;
64615;SDS011;51027;42.162;24.754;2023-06-19T06:14:02;15.18;;;6.32;;
64615;SDS011;51027;42.162;24.754;2023-06-19T06:16:28;16.30;;;6.90;;
64615;SDS011;51027;42.162;24.754;2023-06-19T06:18:54;15.60;;;6.60;;
64615;SDS011;51027;42.162;24.754;2023-06-19T06:21:19;15.65;;;6.68;;
64615;SDS011;51027;42.162;24.754;2023-06-19T06:23:45;15.20;;;6.45;;
64615;SDS011;51027;42.162;24.754;2023-06-19T06:26:10;15.60;;;6.95;;
64615;SDS011;51027;42.162;24.754;2023-06-19T06:28:40;15.32;;;6.45;;
64615;SDS011;51027;42.162;24.754;2023-06-19T06:31:06;17.10;;;6.47;;
64615;SDS011;51027;42.162;24.754;2023-06-19T06:33:32;15.05;;;6.45;;
64615;SDS011;51027;42.162;24.754;2023-06-19T06:35:58;14.18;;;6.28;;
64615;SDS011;51027;42.162;24.754;2023-06-19T06:38:25;14.70;;;6.50;;
64615;SDS011;51027;42.162;24.754;2023-06-19T06:40:51;15.80;;;6.63;;
64615;SDS011;51027;42.162;24.754;2023-06-19T06:43:18;15.40;;;6.40;;
64615;SDS011;51027;42.162;24.754;2023-06-19T06:45:43;14.52;;;6.28;;
64615;SDS011;51027;42.162;24.754;2023-06-19T06:48:09;15.23;;;6.75;;
64615;SDS011;51027;42.162;24.754;2023-06-19T06:50:34;15.45;;;6.47;;
64615;SDS011;51027;42.162;24.754;2023-06-19T06:53:00;16.30;;;6.90;;
64615;SDS011;51027;42.162;24.754;2023-06-19T06:55:26;15.88;;;6.47;;
64615;SDS011;51027;42.162;24.754;2023-06-19T06:57:51;15.25;;;6.78;;
64615;SDS011;51027;42.162;24.754;2023-06-19T07:00:17;15.90;;;7.00;;
64615;SDS011;51027;42.162;24.754;2023-06-19T07:02:43;15.00;;;6.45;;
64615;SDS011;51027;42.162;24.754;2023-06-19T07:05:08;16.88;;;6.22;;
64615;SDS011;51027;42.162;24.754;2023-06-19T07:07:34;15.55;;;6.32;;
64615;SDS011;51027;42.162;24.754;2023-06-19T07:10:00;15.10;;;6.15;;
64615;SDS011;51027;42.162;24.754;2023-06-19T07:12:25;15.55;;;6.53;;
64615;SDS011;51027;42.162;24.754;2023-06-19T07:14:54;14.82;;;6.75;;
64615;SDS011;51027;42.162;24.754;2023-06-19T07:17:20;15.88;;;6.65;;
64615;SDS011;51027;42.162;24.754;2023-06-19T07:19:45;14.63;;;6.63;;
64615;SDS011;51027;42.162;24.754;2023-06-19T07:22:11;14.50;;;5.72;;
64615;SDS011;51027;42.162;24.754;2023-06-19T07:24:37;14.15;;;6.03;;
64615;SDS011;51027;42.162;24.754;2023-06-19T07:27:02;15.23;;;6.55;;
64615;SDS011;51027;42.162;24.754;2023-06-19T07:29:28;15.80;;;6.63;;
64615;SDS011;51027;42.162;24.754;2023-06-19T07:31:53;15.15;;;6.40;;
64615;SDS011;51027;42.162;24.754;2023-06-19T07:34:19;13.13;;;5.88;;
64615;SDS011;51027;42.162;24.754;2023-06-19T07:36:44;15.20;;;6.38;;
64615;SDS011;51027;42.162;24.754;2023-06-19T07:39:10;14.55;;;6.60;;
64615;SDS011;51027;42.162;24.754;2023-06-19T07:41:35;15.13;;;5.97;;
64615;SDS011;51027;42.162;24.754;2023-06-19T07:44:01;16.30;;;6.50;;
64615;SDS011;51027;42.162;24.754;2023-06-19T07:46:26;16.35;;;6.65;;
64615;SDS011;51027;42.162;24.754;2023-06-19T07:48:52;15.30;;;6.38;;
64615;SDS011;51027;42.162;24.754;2023-06-19T07:51:17;16.10;;;6.47;;
64615;SDS011;51027;42.162;24.754;2023-06-19T07:53:43;13.75;;;5.90;;
64615;SDS011;51027;42.162;24.754;2023-06-19T07:56:08;13.98;;;6.25;;
64615;SDS011;51027;42.162;24.754;2023-06-19T07:58:34;14.73;;;6.15;;
64615;SDS011;51027;42.162;24.754;2023-06-19T08:01:00;14.60;;;6.30;;
64615;SDS011;51027;42.162;24.754;2023-06-19T08:03:25;16.50;;;5.60;;
64615;SDS011;51027;42.162;24.754;2023-06-19T08:05:51;15.88;;;6.40;;
64615;SDS011;51027;42.162;24.754;2023-06-19T08:08:16;13.80;;;6.50;;
64615;SDS011;51027;42.162;24.754;2023-06-19T08:10:42;15.25;;;6.80;;
64615;SDS011;51027;42.162;24.754;2023-06-19T08:13:07;15.98;;;6.32;;
64615;SDS011;51027;42.162;24.754;2023-06-19T08:15:33;14.60;;;5.95;;
64615;SDS011;51027;42.162;24.754;2023-06-19T08:17:58;15.43;;;6.40;;
64615;SDS011;51027;42.162;24.754;2023-06-19T08:20:23;16.05;;;6.68;;
64615;SDS011;51027;42.162;24.754;2023-06-19T08:22:49;15.40;;;6.35;;
64615;SDS011;51027;42.162;24.754;2023-06-19T08:25:14;16.17;;;6.72;;
64615;SDS011;51027;42.162;24.754;2023-06-19T08:27:40;16.73;;;6.47;;
64615;SDS011;51027;42.162;24.754;2023-06-19T08:30:05;14.27;;;6.50;;
64615;SDS011;51027;42.162;24.754;2023-06-19T08:32:31;14.88;;;6.00;;
64615;SDS011;51027;42.162;24.754;2023-06-19T08:34:58;14.52;;;6.25;;
64615;SDS011;51027;42.162;24.754;2023-06-19T08:37:23;14.73;;;6.47;;
64615;SDS011;51027;42.162;24.754;2023-06-19T08:39:49;15.75;;;5.97;;
64615;SDS011;51027;42.162;24.754;2023-06-19T08:42:14;16.38;;;6.20;;
64615;SDS011;51027;42.162;24.754;2023-06-19T08:44:40;16.23;;;6.70;;
64615;SDS011;51027;42.162;24.754;2023-06-19T08:47:05;15.15;;;6.85;;
64615;SDS011;51027;42.162;24.754;2023-06-19T08:49:34;17.90;;;6.57;;
64615;SDS011;51027;42.162;24.754;2023-06-19T08:52:02;17.65;;;6.50;;
64615;SDS011;51027;42.162;24.754;2023-06-19T08:54:28;14.48;;;6.07;;
64615;SDS011;51027;42.162;24.754;2023-06-19T08:56:54;14.77;;;6.57;;
64615;SDS011;51027;42.162;24.754;2023-06-19T08:59:20;15.80;;;6.70;;
64615;SDS011;51027;42.162;24.754;2023-06-19T09:01:47;14.00;;;6.18;;
64615;SDS011;51027;42.162;24.754;2023-06-19T09:04:19;14.30;;;6.10;;
64615;SDS011;51027;42.162;24.754;2023-06-19T09:06:54;13.60;;;5.80;;
64615;SDS011;51027;42.162;24.754;2023-06-19T09:09:27;13.45;;;5.97;;
64615;SDS011;51027;42.162;24.754;2023-06-19T09:11:59;15.52;;;6.90;;
64615;SDS011;51027;42.162;24.754;2023-06-19T09:17:20;15.82;;;6.80;;
64615;SDS011;51027;42.162;24.754;2023-06-19T09:19:50;15.25;;;6.30;;
64615;SDS011;51027;42.162;24.754;2023-06-19T09:22:17;14.18;;;6.28;;
64615;SDS011;51027;42.162;24.754;2023-06-19T09:24:43;14.48;;;6.72;;
64615;SDS011;51027;42.162;24.754;2023-06-19T09:27:13;15.07;;;6.45;;
64615;SDS011;51027;42.162;24.754;2023-06-19T09:29:43;14.02;;;6.15;;
64615;SDS011;51027;42.162;24.754;2023-06-19T09:32:19;19.25;;;6.93;;
64615;SDS011;51027;42.162;24.754;2023-06-19T09:34:46;14.90;;;6.18;;
64615;SDS011;51027;42.162;24.754;2023-06-19T09:37:13;14.25;;;6.15;;
64615;SDS011;51027;42.162;24.754;2023-06-19T09:39:39;16.58;;;6.65;;
64615;SDS011;51027;42.162;24.754;2023-06-19T09:42:06;15.40;;;7.70;;
64615;SDS011;51027;42.162;24.754;2023-06-19T09:44:36;15.65;;;6.60;;
64615;SDS011;51027;42.162;24.754;2023-06-19T09:47:14;14.48;;;6.20;;
64615;SDS011;51027;42.162;24.754;2023-06-19T09:49:47;15.70;;;6.20;;
64615;SDS011;51027;42.162;24.754;2023-06-19T09:52:15;14.57;;;6.35;;
64615;SDS011;51027;42.162;24.754;2023-06-19T09:54:41;14.75;;;6.53;;
64615;SDS011;51027;42.162;24.754;2023-06-19T09:57:08;17.80;;;6.70;;
64615;SDS011;51027;42.162;24.754;2023-06-19T09:59:36;15.82;;;6.45;;
64615;SDS011;51027;42.162;24.754;2023-06-19T10:02:05;14.05;;;5.95;;
64615;SDS011;51027;42.162;24.754;2023-06-19T10:04:41;14.70;;;5.88;;
64615;SDS011;51027;42.162;24.754;2023-06-19T10:07:34;15.50;;;5.40;;
64615;SDS011;51027;42.162;24.754;2023-06-19T10:10:08;12.88;;;5.18;;
64615;SDS011;51027;42.162;24.754;2023-06-19T10:12:47;16.92;;;6.00;;
64615;SDS011;51027;42.162;24.754;2023-06-19T10:15:16;15.25;;;5.50;;
64615;SDS011;51027;42.162;24.754;2023-06-19T10:17:44;14.52;;;5.60;;
64615;SDS011;51027;42.162;24.754;2023-06-19T10:20:34;16.80;;;6.55;;
64615;SDS011;51027;42.162;24.754;2023-06-19T10:23:03;14.38;;;5.85;;
64615;SDS011;51027;42.162;24.754;2023-06-19T10:25:39;12.32;;;5.30;;
64615;SDS011;51027;42.162;24.754;2023-06-19T10:31:04;12.82;;;5.38;;
64615;SDS011;51027;42.162;24.754;2023-06-19T10:33:32;15.23;;;5.68;;
64615;SDS011;51027;42.162;24.754;2023-06-19T10:36:13;12.85;;;5.28;;
64615;SDS011;51027;42.162;24.754;2023-06-19T10:38:44;15.85;;;5.57;;
64615;SDS011;51027;42.162;24.754;2023-06-19T10:41:15;16.70;;;5.93;;
64615;SDS011;51027;42.162;24.754;2023-06-19T10:43:42;14.23;;;5.60;;
64615;SDS011;51027;42.162;24.754;2023-06-19T10:46:18;14.38;;;6.03;;
64615;SDS011;51027;42.162;24.754;2023-06-19T10:48:43;13.93;;;5.68;;
64615;SDS011;51027;42.162;24.754;2023-06-19T10:51:10;13.48;;;5.72;;
64615;SDS011;51027;42.162;24.754;2023-06-19T10:53:36;13.50;;;5.13;;
64615;SDS011;51027;42.162;24.754;2023-06-19T10:56:02;13.20;;;5.72;;
64615;SDS011;51027;42.162;24.754;2023-06-19T10:58:28;12.90;;;5.13;;
64615;SDS011;51027;42.162;24.754;2023-06-19T11:00:54;14.38;;;5.43;;
64615;SDS011;51027;42.162;24.754;2023-06-19T11:03:20;13.45;;;5.80;;
64615;SDS011;51027;42.162;24.754;2023-06-19T11:05:46;14.32;;;5.28;;
64615;SDS011;51027;42.162;24.754;2023-06-19T11:08:19;14.15;;;5.78;;
64615;SDS011;51027;42.162;24.754;2023-06-19T11:10:46;15.27;;;5.97;;
64615;SDS011;51027;42.162;24.754;2023-06-19T11:13:16;15.05;;;6.35;;
64615;SDS011;51027;42.162;24.754;2023-06-19T11:15:45;13.95;;;5.30;;
64615;SDS011;51027;42.162;24.754;2023-06-19T11:23:14;14.77;;;5.30;;
64615;SDS011;51027;42.162;24.754;2023-06-19T11:25:40;14.02;;;5.80;;
64615;SDS011;51027;42.162;24.754;2023-06-19T11:28:13;13.90;;;5.35;;
64615;SDS011;51027;42.162;24.754;2023-06-19T11:30:40;14.00;;;5.35;;
64615;SDS011;51027;42.162;24.754;2023-06-19T11:33:18;13.02;;;5.07;;
64615;SDS011;51027;42.162;24.754;2023-06-19T11:35:51;14.00;;;5.43;;
64615;SDS011;51027;42.162;24.754;2023-06-19T11:38:21;13.10;;;5.18;;
64615;SDS011;51027;42.162;24.754;2023-06-19T11:40:47;14.02;;;6.20;;
64615;SDS011;51027;42.162;24.754;2023-06-19T11:46:04;14.15;;;5.40;;
64615;SDS011;51027;42.162;24.754;2023-06-19T11:48:30;13.27;;;5.13;;
64615;SDS011;51027;42.162;24.754;2023-06-19T11:50:56;13.85;;;5.63;;
64615;SDS011;51027;42.162;24.754;2023-06-19T11:53:23;14.65;;;5.97;;
64615;SDS011;51027;42.162;24.754;2023-06-19T11:55:49;13.30;;;5.45;;
64615;SDS011;51027;42.162;24.754;2023-06-19T11:58:15;12.43;;;5.32;;
64615;SDS011;51027;42.162;24.754;2023-06-19T12:00:41;13.00;;;5.30;;
64615;SDS011;51027;42.162;24.754;2023-06-19T12:03:08;13.30;;;5.50;;
64615;SDS011;51027;42.162;24.754;2023-06-19T12:05:34;13.02;;;5.35;;
64615;SDS011;51027;42.162;24.754;2023-06-19T12:08:00;14.95;;;5.57;;
64615;SDS011;51027;42.162;24.754;2023-06-19T12:10:27;12.95;;;5.65;;
64615;SDS011;51027;42.162;24.754;2023-06-19T12:12:53;13.60;;;5.50;;
64615;SDS011;51027;42.162;24.754;2023-06-19T12:15:18;13.48;;;5.22;;
64615;SDS011;51027;42.162;24.754;2023-06-19T12:17:45;12.07;;;5.32;;
64615;SDS011;51027;42.162;24.754;2023-06-19T12:20:11;13.32;;;5.40;;
64615;SDS011;51027;42.162;24.754;2023-06-19T12:22:38;12.55;;;5.00;;
64615;SDS011;51027;42.162;24.754;2023-06-19T12:25:04;15.95;;;5.35;;
64615;SDS011;51027;42.162;24.754;2023-06-19T12:27:30;14.85;;;5.35;;
64615;SDS011;51027;42.162;24.754;2023-06-19T12:29:55;15.93;;;5.75;;
64615;SDS011;51027;42.162;24.754;2023-06-19T12:32:22;13.60;;;5.15;;
64615;SDS011;51027;42.162;24.754;2023-06-19T12:34:47;11.82;;;5.07;;
64615;SDS011;51027;42.162;24.754;2023-06-19T12:37:16;13.05;;;4.95;;
64615;SDS011;51027;42.162;24.754;2023-06-19T12:39:45;14.18;;;5.60;;
64615;SDS011;51027;42.162;24.754;2023-06-19T12:42:11;16.45;;;5.55;;
64615;SDS011;51027;42.162;24.754;2023-06-19T12:44:39;12.98;;;4.85;;
64615;SDS011;51027;42.162;24.754;2023-06-19T12:47:05;13.68;;;5.40;;
64615;SDS011;51027;42.162;24.754;2023-06-19T12:49:31;13.75;;;5.25;;
64615;SDS011;51027;42.162;24.754;2023-06-19T12:51:57;13.18;;;5.25;;
64615;SDS011;51027;42.162;24.754;2023-06-19T12:54:23;11.90;;;5.00;;
64615;SDS011;51027;42.162;24.754;2023-06-19T12:56:48;14.80;;;5.30;;
64615;SDS011;51027;42.162;24.754;2023-06-19T12:59:14;13.63;;;4.75;;
64615;SDS011;51027;42.162;24.754;2023-06-19T13:01:40;12.18;;;4.80;;
64615;SDS011;51027;42.162;24.754;2023-06-19T13:04:06;13.88;;;5.32;;
64615;SDS011;51027;42.162;24.754;2023-06-19T13:06:32;12.27;;;4.80;;
64615;SDS011;51027;42.162;24.754;2023-06-19T13:08:57;15.77;;;6.20;;
64615;SDS011;51027;42.162;24.754;2023-06-19T13:11:23;13.52;;;5.38;;
64615;SDS011;51027;42.162;24.754;2023-06-19T13:13:48;13.23;;;5.22;;
64615;SDS011;51027;42.162;24.754;2023-06-19T13:16:14;12.90;;;5.40;;
64615;SDS011;51027;42.162;24.754;2023-06-19T13:18:41;13.43;;;5.90;;
64615;SDS011;51027;42.162;24.754;2023-06-19T13:21:06;13.70;;;5.47;;
64615;SDS011;51027;42.162;24.754;2023-06-19T13:23:32;14.13;;;5.80;;
64615;SDS011;51027;42.162;24.754;2023-06-19T13:25:57;15.20;;;5.50;;
64615;SDS011;51027;42.162;24.754;2023-06-19T13:28:23;12.45;;;4.93;;
64615;SDS011;51027;42.162;24.754;2023-06-19T13:30:49;12.10;;;5.13;;
64615;SDS011;51027;42.162;24.754;2023-06-19T13:33:15;12.35;;;5.30;;
64615;SDS011;51027;42.162;24.754;2023-06-19T13:35:41;12.18;;;5.05;;
64615;SDS011;51027;42.162;24.754;2023-06-19T13:38:07;15.00;;;5.70;;
64615;SDS011;51027;42.162;24.754;2023-06-19T13:40:32;14.43;;;6.22;;
64615;SDS011;51027;42.162;24.754;2023-06-19T13:43:01;13.80;;;5.78;;
64615;SDS011;51027;42.162;24.754;2023-06-19T13:45:28;13.93;;;5.82;;
64615;SDS011;51027;42.162;24.754;2023-06-19T13:47:55;15.18;;;6.10;;
64615;SDS011;51027;42.162;24.754;2023-06-19T13:50:21;15.10;;;6.25;;
64615;SDS011;51027;42.162;24.754;2023-06-19T13:52:46;12.68;;;5.70;;
64615;SDS011;51027;42.162;24.754;2023-06-19T13:55:12;16.25;;;6.60;;
64615;SDS011;51027;42.162;24.754;2023-06-19T13:57:39;16.55;;;6.00;;
64615;SDS011;51027;42.162;24.754;2023-06-19T14:00:06;16.85;;;6.82;;
64615;SDS011;51027;42.162;24.754;2023-06-19T14:02:33;14.60;;;6.63;;
64615;SDS011;51027;42.162;24.754;2023-06-19T14:04:59;15.35;;;6.72;;
64615;SDS011;51027;42.162;24.754;2023-06-19T14:07:25;15.32;;;6.38;;
64615;SDS011;51027;42.162;24.754;2023-06-19T14:09:51;14.30;;;6.45;;
64615;SDS011;51027;42.162;24.754;2023-06-19T14:12:18;15.60;;;6.68;;
64615;SDS011;51027;42.162;24.754;2023-06-19T14:14:44;14.52;;;6.60;;
64615;SDS011;51027;42.162;24.754;2023-06-19T14:17:09;13.98;;;6.40;;
64615;SDS011;51027;42.162;24.754;2023-06-19T14:19:34;15.80;;;6.50;;
64615;SDS011;51027;42.162;24.754;2023-06-19T14:22:00;15.40;;;6.18;;
64615;SDS011;51027;42.162;24.754;2023-06-19T14:24:27;17.67;;;6.78;;
64615;SDS011;51027;42.162;24.754;2023-06-19T14:26:52;15.82;;;6.13;;
64615;SDS011;51027;42.162;24.754;2023-06-19T14:29:18;16.92;;;7.60;;
64615;SDS011;51027;42.162;24.754;2023-06-19T14:31:45;14.55;;;6.60;;
64615;SDS011;51027;42.162;24.754;2023-06-19T14:34:11;16.20;;;6.75;;
64615;SDS011;51027;42.162;24.754;2023-06-19T14:36:37;15.43;;;7.47;;
64615;SDS011;51027;42.162;24.754;2023-06-19T14:39:03;15.43;;;6.82;;
64615;SDS011;51027;42.162;24.754;2023-06-19T14:41:28;15.55;;;6.38;;
64615;SDS011;51027;42.162;24.754;2023-06-19T14:43:54;16.80;;;6.30;;
64615;SDS011;51027;42.162;24.754;2023-06-19T14:46:19;13.60;;;6.18;;
64615;SDS011;51027;42.162;24.754;2023-06-19T14:48:45;17.80;;;6.80;;
64615;SDS011;51027;42.162;24.754;2023-06-19T14:51:10;15.55;;;6.75;;
64615;SDS011;51027;42.162;24.754;2023-06-19T14:53:36;15.05;;;7.03;;
64615;SDS011;51027;42.162;24.754;2023-06-19T14:56:02;13.75;;;6.07;;
64615;SDS011;51027;42.162;24.754;2023-06-19T14:58:28;14.88;;;6.30;;
64615;SDS011;51027;42.162;24.754;2023-06-19T15:00:54;15.13;;;6.82;;
64615;SDS011;51027;42.162;24.754;2023-06-19T15:03:19;14.25;;;6.40;;
64615;SDS011;51027;42.162;24.754;2023-06-19T15:05:45;17.13;;;6.38;;
64615;SDS011;51027;42.162;24.754;2023-06-19T15:08:10;15.75;;;6.72;;
64615;SDS011;51027;42.162;24.754;2023-06-19T15:10:36;15.07;;;6.63;;
64615;SDS011;51027;42.162;24.754;2023-06-19T15:13:02;15.02;;;6.65;;
64615;SDS011;51027;42.162;24.754;2023-06-19T15:15:27;14.38;;;6.35;;
64615;SDS011;51027;42.162;24.754;2023-06-19T15:17:53;18.02;;;7.30;;
64615;SDS011;51027;42.162;24.754;2023-06-19T15:20:18;17.83;;;6.95;;
64615;SDS011;51027;42.162;24.754;2023-06-19T15:22:45;16.88;;;7.18;;
64615;SDS011;51027;42.162;24.754;2023-06-19T15:25:11;16.30;;;7.70;;
64615;SDS011;51027;42.162;24.754;2023-06-19T15:27:37;15.68;;;7.28;;
64615;SDS011;51027;42.162;24.754;2023-06-19T15:30:02;15.73;;;6.97;;
64615;SDS011;51027;42.162;24.754;2023-06-19T15:32:29;14.50;;;6.72;;
64615;SDS011;51027;42.162;24.754;2023-06-19T15:34:54;16.08;;;6.47;;
64615;SDS011;51027;42.162;24.754;2023-06-19T15:37:20;14.27;;;6.30;;
64615;SDS011;51027;42.162;24.754;2023-06-19T15:39:45;15.05;;;6.35;;
64615;SDS011;51027;42.162;24.754;2023-06-19T15:42:11;15.98;;;6.78;;
64615;SDS011;51027;42.162;24.754;2023-06-19T15:44:36;16.20;;;6.40;;
64615;SDS011;51027;42.162;24.754;2023-06-19T15:47:01;15.32;;;6.60;;
64615;SDS011;51027;42.162;24.754;2023-06-19T15:49:27;16.20;;;7.05;;
64615;SDS011;51027;42.162;24.754;2023-06-19T15:51:52;14.52;;;6.43;;
64615;SDS011;51027;42.162;24.754;2023-06-19T15:54:18;16.13;;;7.18;;
64615;SDS011;51027;42.162;24.754;2023-06-19T15:56:43;14.98;;;6.57;;
64615;SDS011;51027;42.162;24.754;2023-06-19T16:01:38;16.13;;;6.47;;
64615;SDS011;51027;42.162;24.754;2023-06-19T16:04:04;14.98;;;6.38;;
64615;SDS011;51027;42.162;24.754;2023-06-19T16:06:30;15.73;;;6.63;;
64615;SDS011;51027;42.162;24.754;2023-06-19T16:08:55;13.90;;;5.65;;
64615;SDS011;51027;42.162;24.754;2023-06-19T16:11:24;16.13;;;6.40;;
64615;SDS011;51027;42.162;24.754;2023-06-19T16:13:50;13.43;;;5.25;;
64615;SDS011;51027;42.162;24.754;2023-06-19T16:16:15;14.98;;;5.80;;
64615;SDS011;51027;42.162;24.754;2023-06-19T16:18:41;15.52;;;5.93;;
64615;SDS011;51027;42.162;24.754;2023-06-19T16:21:07;14.65;;;6.63;;
64615;SDS011;51027;42.162;24.754;2023-06-19T16:23:32;12.85;;;4.75;;
64615;SDS011;51027;42.162;24.754;2023-06-19T16:25:58;13.65;;;4.88;;
64615;SDS011;51027;42.162;24.754;2023-06-19T16:28:23;11.55;;;4.57;;
64615;SDS011;51027;42.162;24.754;2023-06-19T16:30:49;13.93;;;4.97;;
64615;SDS011;51027;42.162;24.754;2023-06-19T16:33:14;12.07;;;4.50;;
64615;SDS011;51027;42.162;24.754;2023-06-19T16:35:40;13.10;;;4.57;;
64615;SDS011;51027;42.162;24.754;2023-06-19T16:38:06;16.33;;;6.03;;
64615;SDS011;51027;42.162;24.754;2023-06-19T16:40:31;15.27;;;6.35;;
64615;SDS011;51027;42.162;24.754;2023-06-19T16:42:57;14.13;;;5.35;;
64615;SDS011;51027;42.162;24.754;2023-06-19T16:45:23;14.85;;;5.38;;
64615;SDS011;51027;42.162;24.754;2023-06-19T16:47:51;12.75;;;4.75;;
64615;SDS011;51027;42.162;24.754;2023-06-19T16:50:17;13.80;;;5.10;;
64615;SDS011;51027;42.162;24.754;2023-06-19T16:52:42;12.40;;;4.85;;
64615;SDS011;51027;42.162;24.754;2023-06-19T16:55:08;13.20;;;4.93;;
64615;SDS011;51027;42.162;24.754;2023-06-19T16:57:34;11.88;;;4.43;;
64615;SDS011;51027;42.162;24.754;2023-06-19T17:00:00;14.18;;;5.10;;
64615;SDS011;51027;42.162;24.754;2023-06-19T17:02:25;14.10;;;4.82;;
64615;SDS011;51027;42.162;24.754;2023-06-19T17:04:51;14.50;;;4.93;;
64615;SDS011;51027;42.162;24.754;2023-06-19T17:07:16;15.70;;;4.80;;
64615;SDS011;51027;42.162;24.754;2023-06-19T17:09:42;13.93;;;5.25;;
64615;SDS011;51027;42.162;24.754;2023-06-19T17:12:08;15.30;;;5.43;;
64615;SDS011;51027;42.162;24.754;2023-06-19T17:14:34;13.40;;;5.63;;
64615;SDS011;51027;42.162;24.754;2023-06-19T17:17:00;13.73;;;5.22;;
64615;SDS011;51027;42.162;24.754;2023-06-19T17:19:26;16.48;;;5.78;;
64615;SDS011;51027;42.162;24.754;2023-06-19T17:21:52;15.15;;;5.72;;
64615;SDS011;51027;42.162;24.754;2023-06-19T17:24:17;14.65;;;5.57;;
64615;SDS011;51027;42.162;24.754;2023-06-19T17:26:42;13.45;;;6.00;;
64615;SDS011;51027;42.162;24.754;2023-06-19T17:29:08;16.33;;;6.28;;
64615;SDS011;51027;42.162;24.754;2023-06-19T17:31:33;14.00;;;6.03;;
64615;SDS011;51027;42.162;24.754;2023-06-19T17:33:59;14.77;;;5.75;;
64615;SDS011;51027;42.162;24.754;2023-06-19T17:36:24;14.23;;;5.60;;
64615;SDS011;51027;42.162;24.754;2023-06-19T17:38:49;14.40;;;6.20;;
64615;SDS011;51027;42.162;24.754;2023-06-19T17:41:15;14.27;;;5.80;;
64615;SDS011;51027;42.162;24.754;2023-06-19T17:43:41;14.60;;;5.88;;
64615;SDS011;51027;42.162;24.754;2023-06-19T17:46:09;16.00;;;6.15;;
64615;SDS011;51027;42.162;24.754;2023-06-19T17:51:01;14.10;;;5.78;;
64615;SDS011;51027;42.162;24.754;2023-06-19T17:53:26;14.38;;;5.82;;
64615;SDS011;51027;42.162;24.754;2023-06-19T17:55:52;14.63;;;6.03;;
64615;SDS011;51027;42.162;24.754;2023-06-19T17:58:17;14.90;;;5.97;;
64615;SDS011;51027;42.162;24.754;2023-06-19T18:00:42;13.38;;;5.60;;
64615;SDS011;51027;42.162;24.754;2023-06-19T18:03:08;15.82;;;6.53;;
64615;SDS011;51027;42.162;24.754;2023-06-19T18:05:34;14.85;;;5.80;;
64615;SDS011;51027;42.162;24.754;2023-06-19T18:08:00;13.70;;;5.60;;